Time;durP1;ratioP1;P1;durP2;ratioP2;P2;SDS_P1;SDS_P2;PMS_P1;PMS_P2;Temp;Humidity;BMP_temperature;BMP_pressure;BME280_temperature;BME280_humidity;BME280_pressure;Samples;Min_cycle;Max_cycle;Signal;HPM_P1;HPM_P2
2022/07/16 00:02:55;;;;;;;1.10;1.00;;;23.40;44.10;24.00;96818.00;;;;5064641;28;20207;-89
2022/07/16 00:05:22;;;;;;;1.13;1.03;;;23.40;44.20;24.00;96827.00;;;;5070660;28;20919;-88
2022/07/16 00:07:50;;;;;;;1.60;0.87;;;23.30;44.30;23.90;96826.00;;;;5071109;28;20239;-89
2022/07/16 00:10:17;;;;;;;0.90;0.90;;;23.30;44.50;23.90;96828.00;;;;5071488;28;20223;-88
2022/07/16 00:12:44;;;;;;;1.20;1.10;;;23.20;44.70;23.80;96825.00;;;;5071768;28;20205;-89
2022/07/16 00:15:11;;;;;;;1.07;0.97;;;23.20;44.90;23.80;96825.00;;;;5071569;28;20287;-88
2022/07/16 00:17:39;;;;;;;1.73;0.93;;;23.20;44.80;23.70;96820.00;;;;5071520;28;20273;-89
2022/07/16 00:20:08;;;;;;;0.90;0.90;;;23.10;44.80;23.70;96822.00;;;;5071551;28;20242;-89
2022/07/16 00:22:36;;;;;;;1.77;1.00;;;23.10;45.10;23.60;96827.00;;;;5071279;28;20287;-89
2022/07/16 00:25:04;;;;;;;1.00;0.90;;;23.00;45.10;23.50;96818.00;;;;5070964;28;20720;-89
2022/07/16 00:27:31;;;;;;;1.00;0.90;;;22.90;45.20;23.50;96822.00;;;;5071021;28;20227;-89
2022/07/16 00:29:58;;;;;;;2.60;1.20;;;22.90;45.40;23.40;96821.00;;;;5071433;28;20279;-88
2022/07/16 00:32:26;;;;;;;2.13;0.97;;;22.80;45.50;23.40;96813.00;;;;5072182;28;20203;-89
2022/07/16 00:34:53;;;;;;;1.93;1.27;;;22.70;45.70;23.30;96820.00;;;;5075404;28;20278;-90
2022/07/16 00:37:21;;;;;;;0.80;0.80;;;22.70;45.80;23.20;96806.00;;;;5075304;28;20215;-89
2022/07/16 00:39:48;;;;;;;1.27;0.80;;;22.60;45.90;23.20;96811.00;;;;5075491;28;20226;-89
2022/07/16 00:42:15;;;;;;;1.23;0.90;;;22.60;46.10;23.10;96813.00;;;;5074249;28;20230;-88
2022/07/16 00:44:43;;;;;;;1.20;1.10;;;22.50;46.20;23.10;96810.00;;;;5075279;28;20307;-88
2022/07/16 00:47:10;;;;;;;1.00;0.97;;;22.50;46.30;23.00;96814.00;;;;5074472;28;20235;-89
2022/07/16 00:49:37;;;;;;;1.10;1.00;;;22.40;46.20;23.00;96815.00;;;;5075069;28;20208;-88
2022/07/16 00:52:05;;;;;;;0.93;0.93;;;22.40;46.40;22.90;96812.00;;;;5075473;28;20596;-89
2022/07/16 00:54:34;;;;;;;1.33;1.10;;;22.30;46.40;22.80;96811.00;;;;5074568;28;20207;-89
2022/07/16 00:57:01;;;;;;;1.13;1.00;;;22.20;46.50;22.80;96812.00;;;;5075145;28;20592;-88
2022/07/16 00:59:28;;;;;;;1.00;1.00;;;22.20;46.50;22.70;96817.00;;;;5075342;28;20216;-88
2022/07/16 01:01:55;;;;;;;1.00;1.00;;;22.10;46.40;22.70;96809.00;;;;5073983;28;20285;-89
2022/07/16 01:04:24;;;;;;;0.70;0.70;;;22.10;46.30;22.60;96812.00;;;;5069710;28;20234;-88
2022/07/16 01:06:51;;;;;;;1.37;1.10;;;22.00;46.20;22.60;96817.00;;;;5078819;22;20252;-86
2022/07/16 01:09:20;;;;;;;1.57;1.30;;;22.00;46.80;22.50;96823.00;;;;5030088;28;20219;-85
2022/07/16 01:11:49;;;;;;;1.87;1.10;;;21.90;46.20;22.40;96821.00;;;;5033153;28;20753;-86
2022/07/16 01:14:17;;;;;;;1.10;1.10;;;21.80;46.30;22.30;96819.00;;;;5039794;28;20224;-85
2022/07/16 01:16:45;;;;;;;2.83;1.10;;;21.80;46.50;22.30;96819.00;;;;5053641;28;20212;-86
2022/07/16 01:19:13;;;;;;;1.47;1.00;;;21.70;46.60;22.20;96818.00;;;;5053339;28;20224;-85
2022/07/16 01:21:42;;;;;;;1.30;1.00;;;21.60;46.80;22.10;96819.00;;;;5049318;28;20746;-85
2022/07/16 01:24:11;;;;;;;0.93;0.90;;;21.60;47.00;22.10;96821.00;;;;5037505;28;20661;-86
2022/07/16 01:26:38;;;;;;;1.00;0.90;;;21.50;47.20;22.00;96821.00;;;;5047455;28;20288;-85
2022/07/16 01:29:06;;;;;;;0.97;0.90;;;21.50;47.30;22.00;96819.00;;;;5043988;28;20560;-85
2022/07/16 01:31:33;;;;;;;1.23;1.03;;;21.40;47.40;21.90;96819.00;;;;5039462;28;20700;-85
2022/07/16 01:36:55;;;;;;;2.30;1.03;;;21.30;47.80;21.80;96817.00;;;;5027035;28;20227;-86
2022/07/16 01:39:25;;;;;;;1.20;1.10;;;21.30;48.20;21.70;96822.00;;;;5034345;28;20229;-86
2022/07/16 01:41:53;;;;;;;1.00;1.00;;;21.20;48.10;21.70;96824.00;;;;5037784;28;20637;-86
2022/07/16 01:44:23;;;;;;;2.37;1.07;;;21.20;48.30;21.60;96827.00;;;;5053585;28;20207;-85
2022/07/16 01:46:51;;;;;;;0.80;0.80;;;21.10;48.30;21.60;96825.00;;;;5047316;28;20609;-85
2022/07/16 01:49:18;;;;;;;1.00;1.00;;;21.10;48.40;21.50;96813.00;;;;5049599;28;20228;-86
2022/07/16 01:51:45;;;;;;;1.47;1.10;;;21.00;48.50;21.50;96814.00;;;;5035284;28;20238;-85
2022/07/16 01:54:13;;;;;;;0.80;0.80;;;21.00;48.70;21.40;96813.00;;;;5034191;28;20702;-85
2022/07/16 01:56:43;;;;;;;1.10;1.00;;;20.90;48.80;21.40;96821.00;;;;5039418;28;20236;-85
2022/07/16 01:59:10;;;;;;;1.37;1.27;;;20.90;49.00;21.40;96819.00;;;;5042789;28;20265;-85
2022/07/16 02:01:37;;;;;;;1.37;0.90;;;20.90;49.10;21.30;96809.00;;;;5034421;28;20605;-87
2022/07/16 02:04:05;;;;;;;1.37;1.30;;;20.80;49.10;21.30;96820.00;;;;5031808;28;20291;-85
2022/07/16 02:06:32;;;;;;;1.13;0.83;;;20.80;49.30;21.30;96814.00;;;;5033974;28;20316;-86
2022/07/16 02:08:59;;;;;;;0.93;0.90;;;20.80;49.20;21.20;96814.00;;;;5033165;28;20301;-85
2022/07/16 02:11:26;;;;;;;1.13;1.03;;;20.70;49.20;21.20;96817.00;;;;5033676;28;20292;-87
2022/07/16 02:13:55;;;;;;;1.50;1.40;;;20.60;49.20;21.10;96810.00;;;;5042480;28;20300;-85
2022/07/16 02:16:22;;;;;;;1.13;1.03;;;20.60;49.30;21.00;96814.00;;;;5046170;28;20211;-86
2022/07/16 02:18:49;;;;;;;0.80;0.80;;;20.50;49.40;21.00;96813.00;;;;5040901;28;20766;-85
2022/07/16 02:21:16;;;;;;;1.30;1.07;;;20.50;49.40;20.90;96819.00;;;;5038500;28;20275;-85
2022/07/16 02:23:43;;;;;;;1.10;0.93;;;20.40;49.50;20.80;96812.00;;;;5034073;28;20685;-85
2022/07/16 02:26:10;;;;;;;0.87;0.87;;;20.30;49.50;20.80;96815.00;;;;5035209;28;20276;-86
2022/07/16 02:28:37;;;;;;;0.97;0.97;;;20.30;49.70;20.70;96811.00;;;;5030702;28;20255;-85
2022/07/16 02:31:06;;;;;;;1.53;1.10;;;20.20;49.70;20.60;96811.00;;;;5035861;28;20292;-86
2022/07/16 02:33:33;;;;;;;1.57;0.90;;;20.10;49.90;20.50;96819.00;;;;5030676;28;20371;-86
2022/07/16 02:36:01;;;;;;;1.20;1.10;;;20.10;50.00;20.50;96810.00;;;;5031686;28;20211;-85
2022/07/16 02:38:28;;;;;;;2.53;1.00;;;20.00;50.10;20.40;96811.00;;;;5026771;28;20249;-85
2022/07/16 02:40:55;;;;;;;2.27;1.07;;;20.00;50.30;20.40;96813.00;;;;5027099;28;20201;-87
2022/07/16 02:43:22;;;;;;;0.90;0.90;;;19.90;50.40;20.30;96812.00;;;;5033021;28;20201;-85
2022/07/16 02:45:49;;;;;;;1.33;1.13;;;19.90;50.60;20.30;96808.00;;;;5040348;28;20733;-86
2022/07/16 02:48:18;;;;;;;1.30;1.20;;;19.80;50.60;20.20;96821.00;;;;5041119;28;20981;-86
2022/07/16 02:50:45;;;;;;;1.10;1.00;;;19.70;50.70;20.10;96815.00;;;;5032468;28;20245;-84
2022/07/16 02:53:13;;;;;;;0.97;0.90;;;19.70;50.80;20.10;96823.00;;;;5037719;28;20193;-84
2022/07/16 02:55:40;;;;;;;1.00;1.00;;;19.60;51.00;20.10;96822.00;;;;5034242;28;20266;-85
2022/07/16 02:58:07;;;;;;;1.77;1.10;;;19.60;51.20;20.00;96828.00;;;;5029686;28;20740;-85
2022/07/16 03:00:34;;;;;;;1.57;1.17;;;19.50;51.30;19.90;96824.00;;;;5047095;28;20204;-85
2022/07/16 03:03:01;;;;;;;1.00;1.00;;;19.50;51.40;19.90;96831.00;;;;5039332;28;20224;-85
2022/07/16 03:05:30;;;;;;;1.00;1.00;;;19.50;51.50;19.90;96821.00;;;;5034361;28;20260;-85
2022/07/16 03:07:57;;;;;;;1.10;1.00;;;19.40;51.70;19.80;96816.00;;;;5033497;28;20213;-86
2022/07/16 03:10:24;;;;;;;2.13;0.90;;;19.40;51.80;19.80;96819.00;;;;5020166;28;20228;-85
2022/07/16 03:12:52;;;;;;;1.27;1.00;;;19.30;51.80;19.80;96826.00;;;;5046921;28;20203;-85
2022/07/16 03:15:19;;;;;;;2.00;1.20;;;19.30;52.00;19.70;96826.00;;;;5039001;28;20236;-84
2022/07/16 03:17:46;;;;;;;1.17;1.07;;;19.20;52.10;19.70;96825.00;;;;5032310;28;20228;-85
2022/07/16 03:20:13;;;;;;;1.97;1.03;;;19.20;52.30;19.70;96832.00;;;;5032076;28;20284;-85
2022/07/16 03:22:46;;;;;;;0.90;0.90;;;19.20;52.50;19.60;96827.00;;;;5040022;28;20250;-85
2022/07/16 03:25:16;;;;;;;1.00;1.00;;;19.20;52.60;19.60;96825.00;;;;5029513;28;20312;-85
2022/07/16 03:27:44;;;;;;;0.87;0.80;;;19.10;52.50;19.60;96827.00;;;;5031232;28;20240;-85
2022/07/16 03:30:12;;;;;;;3.03;1.10;;;19.10;52.50;19.50;96831.00;;;;5034943;28;20255;-85
2022/07/16 03:32:40;;;;;;;1.10;1.07;;;19.00;52.50;19.50;96825.00;;;;5040000;28;20561;-85
2022/07/16 03:35:09;;;;;;;1.00;1.00;;;19.00;52.70;19.50;96828.00;;;;5031396;28;20197;-85
2022/07/16 03:38:57;;;;;;;1.10;0.93;;;19.00;52.70;19.40;96831.00;;;;5030428;28;20239;-85
2022/07/16 03:40:27;;;;;;;1.10;1.10;;;19.00;52.70;19.40;96829.00;;;;5031070;28;20219;-86
2022/07/16 03:42:55;;;;;;;0.90;0.90;;;18.90;52.60;19.40;96834.00;;;;5032228;28;20723;-85
2022/07/16 03:45:22;;;;;;;1.33;1.10;;;18.90;52.60;19.30;96829.00;;;;5038410;28;20630;-85
2022/07/16 03:47:49;;;;;;;1.33;1.23;;;18.90;52.80;19.30;96839.00;;;;5031837;28;20722;-85
2022/07/16 03:50:17;;;;;;;2.00;1.20;;;18.80;52.90;19.20;96839.00;;;;5024870;28;20232;-85
2022/07/16 03:52:45;;;;;;;1.70;1.17;;;18.80;53.10;19.20;96843.00;;;;5031131;28;20619;-85
2022/07/16 03:55:12;;;;;;;1.20;1.10;;;18.70;53.20;19.20;96844.00;;;;5030792;28;20567;-85
2022/07/16 03:57:41;;;;;;;1.17;1.07;;;18.70;53.40;19.20;96843.00;;;;5031842;28;20211;-85
2022/07/16 04:00:11;;;;;;;1.00;1.00;;;18.70;53.50;19.20;96849.00;;;;5031888;28;20317;-85
2022/07/16 04:02:38;;;;;;;1.60;1.50;;;18.70;53.50;19.20;96850.00;;;;5024142;28;20201;-85
2022/07/16 04:05:07;;;;;;;1.40;1.30;;;18.70;53.70;19.10;96852.00;;;;5031187;28;20209;-86
2022/07/16 04:07:35;;;;;;;1.17;1.07;;;18.70;53.90;19.10;96858.00;;;;5038899;28;20254;-85
2022/07/16 04:10:02;;;;;;;1.13;1.13;;;18.60;54.00;19.10;96856.00;;;;5051528;28;20303;-85
2022/07/16 04:12:30;;;;;;;1.23;1.03;;;18.60;53.90;19.10;96857.00;;;;5069980;22;20218;-86
2022/07/16 04:15:00;;;;;;;1.60;1.50;;;18.60;53.90;19.10;96855.00;;;;5082252;28;20655;-85
2022/07/16 04:17:31;;;;;;;1.20;1.10;;;18.60;54.10;19.10;96855.00;;;;5086888;28;20219;-85
2022/07/16 04:20:01;;;;;;;0.93;0.93;;;18.60;54.10;19.10;96855.00;;;;5091585;28;20195;-85
2022/07/16 04:22:29;;;;;;;1.50;1.40;;;18.60;54.10;19.10;96859.00;;;;5102085;28;20195;-85
2022/07/16 04:24:58;;;;;;;1.40;1.20;;;18.60;54.20;19.10;96864.00;;;;5091805;28;20187;-85
2022/07/16 04:27:27;;;;;;;1.20;1.10;;;18.60;54.20;19.10;96859.00;;;;5089433;28;20658;-85
2022/07/16 04:29:54;;;;;;;1.33;1.23;;;18.50;54.20;19.00;96866.00;;;;5089381;28;20589;-85
2022/07/16 04:32:24;;;;;;;2.53;1.40;;;18.50;54.30;19.00;96862.00;;;;5091766;28;20207;-85
2022/07/16 04:34:53;;;;;;;1.20;1.20;;;18.50;54.40;19.00;96862.00;;;;5083997;28;20242;-85
2022/07/16 04:37:21;;;;;;;2.33;1.50;;;18.50;54.40;19.00;96863.00;;;;5091237;28;20230;-85
2022/07/16 04:39:50;;;;;;;1.93;1.23;;;18.50;54.40;19.00;96863.00;;;;5090541;28;20220;-85
2022/07/16 04:42:20;;;;;;;2.17;1.00;;;18.50;54.50;19.00;96863.00;;;;5090808;28;20199;-86
2022/07/16 04:44:47;;;;;;;1.63;1.30;;;18.50;54.50;19.00;96866.00;;;;5091082;28;20685;-85
2022/07/16 04:47:14;;;;;;;1.40;1.20;;;18.50;54.50;19.00;96864.00;;;;5094242;28;20219;-85
2022/07/16 04:49:43;;;;;;;1.40;1.30;;;18.50;54.50;19.10;96871.00;;;;5090675;28;20200;-85
2022/07/16 04:52:10;;;;;;;1.13;1.00;;;18.60;54.60;19.10;96863.00;;;;5091169;28;20199;-85
2022/07/16 04:54:37;;;;;;;1.33;1.23;;;18.60;54.60;19.10;96865.00;;;;5090584;28;20199;-85
2022/07/16 04:57:05;;;;;;;2.73;1.20;;;18.60;54.60;19.10;96868.00;;;;5090410;28;20298;-85
2022/07/16 04:59:32;;;;;;;1.00;1.00;;;18.60;54.60;19.20;96869.00;;;;5091287;28;20294;-85
2022/07/16 05:04:54;;;;;;;1.40;1.20;;;18.60;54.80;19.20;96872.00;;;;5090056;28;20678;-85
2022/07/16 05:07:28;;;;;;;1.50;1.27;;;18.70;54.60;19.30;96874.00;;;;5088643;28;20235;-85
2022/07/16 05:09:55;;;;;;;1.73;1.10;;;18.70;54.70;19.30;96872.00;;;;5085276;28;20242;-85
2022/07/16 05:12:23;;;;;;;1.40;1.30;;;18.70;54.50;19.30;96872.00;;;;5090938;28;20207;-86
2022/07/16 05:14:50;;;;;;;1.70;1.27;;;18.80;54.50;19.40;96872.00;;;;5081386;28;20192;-85
2022/07/16 05:17:17;;;;;;;1.90;1.20;;;18.80;54.60;19.40;96870.00;;;;5089620;28;20272;-86
2022/07/16 05:19:44;;;;;;;3.60;1.53;;;18.80;54.60;19.50;96874.00;;;;5092687;28;20241;-86
2022/07/16 05:22:13;;;;;;;2.43;1.50;;;18.90;54.60;19.50;96874.00;;;;5095241;28;20249;-85
2022/07/16 05:24:40;;;;;;;2.63;1.20;;;18.90;54.70;19.50;96880.00;;;;5089954;28;20200;-86
2022/07/16 05:27:08;;;;;;;1.70;1.60;;;19.00;54.60;19.60;96881.00;;;;5094814;28;20225;-86
2022/07/16 05:29:35;;;;;;;2.77;1.40;;;19.00;54.50;19.70;96879.00;;;;5093048;28;20207;-86
2022/07/16 05:32:03;;;;;;;1.27;1.27;;;19.10;54.50;19.70;96888.00;;;;5093599;28;20248;-86
2022/07/16 05:34:30;;;;;;;1.40;1.30;;;19.10;54.50;19.70;96890.00;;;;5095439;28;20583;-86
2022/07/16 05:36:58;;;;;;;2.13;1.20;;;19.10;54.50;19.80;96890.00;;;;5088300;28;20283;-86
2022/07/16 05:39:26;;;;;;;1.47;1.37;;;19.20;54.60;19.80;96897.00;;;;5104095;28;20553;-86
2022/07/16 05:41:53;;;;;;;2.37;1.27;;;19.20;54.60;19.90;96893.00;;;;5089660;28;20504;-87
2022/07/16 05:44:22;;;;;;;1.17;1.17;;;19.30;54.70;19.90;96901.00;;;;5091116;28;20633;-86
2022/07/16 05:46:51;;;;;;;1.30;1.20;;;19.30;54.70;20.00;96900.00;;;;5078651;28;20219;-86
2022/07/16 05:49:25;;;;;;;1.30;1.20;;;19.40;55.30;20.00;96896.00;;;;5094804;28;20844;-86
2022/07/16 05:52:04;;;;;;;2.33;1.73;;;19.40;54.60;20.10;96897.00;;;;5084733;28;20188;-86
2022/07/16 05:54:46;;;;;;;1.40;1.30;;;19.50;54.50;20.10;96896.00;;;;5092327;28;20242;-86
2022/07/16 05:57:13;;;;;;;1.73;1.30;;;19.50;54.60;20.20;96887.00;;;;5099403;28;20211;-88
2022/07/16 05:59:41;;;;;;;1.43;1.27;;;19.50;54.50;20.20;96888.00;;;;5095545;28;20256;-88
2022/07/16 06:02:09;;;;;;;2.07;1.60;;;19.60;54.70;20.30;96893.00;;;;5096225;28;20203;-86
2022/07/16 06:06:06;;;;;;;1.20;1.20;;;19.70;54.80;20.40;96901.00;;;;5098931;28;20253;-89
2022/07/16 06:08:34;;;;;;;1.23;1.13;;;19.60;54.80;20.50;96909.00;;;;5039956;28;20245;-87
2022/07/16 06:11:02;;;;;;;1.63;1.20;;;19.80;54.40;20.60;96902.00;;;;5096295;28;20194;-87
2022/07/16 06:13:30;;;;;;;1.60;1.50;;;19.90;54.50;20.60;96908.00;;;;5097007;28;20207;-86
2022/07/16 06:15:57;;;;;;;1.87;1.40;;;19.90;54.50;20.70;96909.00;;;;5098339;28;20598;-87
2022/07/16 06:18:24;;;;;;;2.67;1.10;;;20.00;54.60;20.80;96915.00;;;;5088153;28;20216;-87
2022/07/16 06:20:52;;;;;;;1.27;1.07;;;20.10;54.70;20.80;96915.00;;;;5096935;28;20196;-87
2022/07/16 06:23:19;;;;;;;1.57;1.40;;;20.10;54.60;20.90;96914.00;;;;5093513;28;20203;-88
2022/07/16 06:25:46;;;;;;;2.30;1.30;;;20.20;54.80;21.00;96908.00;;;;5094490;28;20199;-87
2022/07/16 06:28:15;;;;;;;1.20;1.10;;;20.30;54.80;21.10;96914.00;;;;5091134;28;20234;-86
2022/07/16 06:30:43;;;;;;;1.23;1.00;;;20.40;54.50;21.10;96914.00;;;;5094388;28;20288;-87
2022/07/16 06:33:11;;;;;;;2.97;1.10;;;20.40;54.50;21.20;96917.00;;;;5094032;28;20198;-87
2022/07/16 06:35:38;;;;;;;2.43;1.23;;;20.50;54.20;21.30;96916.00;;;;5094679;28;20257;-88
2022/07/16 06:38:05;;;;;;;1.13;1.03;;;20.60;54.20;21.40;96915.00;;;;5088056;28;20221;-88
2022/07/16 06:40:32;;;;;;;1.97;1.17;;;20.60;54.20;21.50;96921.00;;;;5084567;28;20222;-87
2022/07/16 06:43:00;;;;;;;2.60;1.33;;;20.70;54.20;21.50;96918.00;;;;5093985;28;20205;-88
2022/07/16 06:45:29;;;;;;;0.97;0.90;;;20.80;53.50;21.60;96922.00;;;;5093985;28;20203;-87
2022/07/16 06:47:56;;;;;;;1.00;1.00;;;20.90;53.20;21.70;96926.00;;;;5097686;28;20230;-87
2022/07/16 06:50:24;;;;;;;1.33;1.03;;;21.00;53.00;21.80;96921.00;;;;5093802;28;20191;-88
2022/07/16 06:52:51;;;;;;;1.13;1.03;;;21.10;52.90;21.90;96929.00;;;;5087967;28;20202;-87
2022/07/16 06:55:19;;;;;;;1.17;1.03;;;21.20;52.70;22.00;96924.00;;;;5093659;28;21838;-87
2022/07/16 06:57:46;;;;;;;1.40;1.10;;;21.30;52.50;22.10;96921.00;;;;5092360;28;20222;-87
2022/07/16 07:00:15;;;;;;;1.47;1.00;;;21.30;52.30;22.20;96927.00;;;;5085855;28;20195;-87
2022/07/16 07:02:44;;;;;;;1.07;0.80;;;21.50;52.30;22.30;96925.00;;;;5089715;28;20736;-87
2022/07/16 07:05:11;;;;;;;1.23;0.83;;;21.60;51.90;22.40;96934.00;;;;5092017;28;20230;-87
2022/07/16 07:07:45;;;;;;;1.07;0.93;;;21.70;51.60;22.60;96934.00;;;;5098202;22;20235;-82
2022/07/16 07:10:12;;;;;;;1.47;1.10;;;21.80;51.30;22.70;96933.00;;;;5080107;28;20257;-82
2022/07/16 07:12:40;;;;;;;1.10;1.00;;;21.90;51.20;22.80;96942.00;;;;5082888;28;20192;-82
2022/07/16 07:15:10;;;;;;;0.90;0.90;;;22.00;51.10;23.00;96942.00;;;;5088344;28;20613;-82
2022/07/16 07:17:37;;;;;;;1.23;0.93;;;22.10;51.10;23.20;96937.00;;;;5093823;28;20222;-82
2022/07/16 07:20:08;;;;;;;1.27;1.17;;;22.30;51.30;23.50;96943.00;;;;5093453;28;20277;-83
2022/07/16 07:22:35;;;;;;;2.10;1.20;;;22.50;51.20;23.70;96939.00;;;;5091091;28;20254;-82
2022/07/16 07:25:03;;;;;;;1.93;1.20;;;22.70;51.10;23.90;96943.00;;;;5094927;28;20263;-83
2022/07/16 07:27:30;;;;;;;1.30;1.20;;;22.90;50.60;24.10;96942.00;;;;5095323;28;20236;-83
2022/07/16 07:29:58;;;;;;;2.73;1.00;;;23.00;50.00;24.30;96940.00;;;;5090507;28;20599;-82
2022/07/16 07:32:25;;;;;;;1.40;1.30;;;23.20;50.00;24.50;96949.00;;;;5086054;28;20720;-83
2022/07/16 07:34:52;;;;;;;1.50;1.00;;;23.40;49.90;24.80;96949.00;;;;5077239;28;20196;-83
2022/07/16 07:37:22;;;;;;;2.93;1.30;;;23.60;49.30;25.00;96950.00;;;;5084693;28;20241;-82
2022/07/16 07:39:51;;;;;;;1.03;1.00;;;23.80;48.70;25.20;96948.00;;;;5088403;28;20548;-82
2022/07/16 07:42:18;;;;;;;1.10;0.90;;;24.00;48.20;25.40;96951.00;;;;5078259;28;20254;-82
2022/07/16 07:44:46;;;;;;;0.90;0.90;;;24.20;48.20;25.60;96949.00;;;;5077368;28;20283;-82
2022/07/16 07:47:13;;;;;;;1.63;1.10;;;24.40;48.00;25.80;96945.00;;;;5079986;28;20592;-83
2022/07/16 07:49:40;;;;;;;2.63;1.20;;;24.60;47.30;26.00;96945.00;;;;5090954;28;20206;-82
2022/07/16 07:52:09;;;;;;;1.93;1.10;;;24.80;47.00;26.20;96945.00;;;;5091112;28;20230;-83
2022/07/16 07:54:50;;;;;;;0.83;0.83;;;25.00;47.00;26.40;96942.00;;;;5086025;28;20223;-82
2022/07/16 07:57:23;;;;;;;1.00;1.00;;;25.20;46.20;26.50;96944.00;;;;5094194;28;20214;-82
2022/07/16 07:59:50;;;;;;;1.20;1.10;;;25.40;46.20;26.70;96941.00;;;;5089350;28;20667;-82
2022/07/16 08:02:19;;;;;;;1.23;1.13;;;25.50;45.80;26.90;96945.00;;;;5089897;28;20199;-81
2022/07/16 08:04:49;;;;;;;1.03;1.00;;;25.60;45.10;27.00;96941.00;;;;5083422;28;20291;-81
2022/07/16 08:07:23;;;;;;;1.20;1.03;;;25.80;45.20;27.20;96948.00;;;;5092009;28;20215;-81
2022/07/16 08:09:52;;;;;;;2.33;1.10;;;25.90;44.90;27.40;96951.00;;;;5094868;28;20605;-81
2022/07/16 08:12:24;;;;;;;1.67;1.13;;;26.10;44.50;27.50;96950.00;;;;5090111;28;20188;-81
2022/07/16 08:15:08;;;;;;;1.27;1.17;;;26.30;44.20;27.70;96955.00;;;;5076673;28;20199;-82
2022/07/16 08:17:40;;;;;;;1.20;1.10;;;26.50;43.70;27.90;96955.00;;;;5089862;28;20684;-82
2022/07/16 08:20:16;;;;;;;1.27;1.00;;;26.60;44.00;28.00;96956.00;;;;5076207;28;20328;-82
2022/07/16 08:22:53;;;;;;;1.80;1.10;;;26.80;43.20;28.20;96959.00;;;;5077118;28;20195;-82
2022/07/16 08:28:07;;;;;;;1.27;0.90;;;27.10;43.20;28.50;96976.00;;;;5082282;28;20241;-82
2022/07/16 08:30:34;;;;;;;1.83;0.93;;;27.30;43.00;28.70;96964.00;;;;5084974;28;20203;-82
2022/07/16 08:33:01;;;;;;;2.13;0.93;;;27.40;42.30;28.80;96962.00;;;;5083349;28;20689;-82
2022/07/16 08:35:29;;;;;;;1.33;1.00;;;27.50;41.90;29.00;96958.00;;;;5091959;28;20206;-82
2022/07/16 08:38:08;;;;;;;1.23;1.00;;;27.60;41.70;29.10;96958.00;;;;5085861;28;20301;-82
2022/07/16 08:40:49;;;;;;;3.67;1.10;;;27.80;41.70;29.30;96964.00;;;;5085754;28;20200;-80
2022/07/16 08:43:16;;;;;;;1.95;1.13;;;27.90;41.30;29.50;96972.00;;;;5090224;28;20662;-82
2022/07/16 08:45:45;;;;;;;1.48;1.15;;;28.10;41.20;29.60;96966.00;;;;5078656;28;20242;-82
2022/07/16 08:48:15;;;;;;;1.58;1.13;;;28.20;40.70;29.80;96973.00;;;;5087321;28;20744;-82
2022/07/16 08:50:43;;;;;;;1.90;1.63;;;28.30;40.50;29.90;96964.00;;;;5087155;28;20267;-82
2022/07/16 08:53:11;;;;;;;1.17;1.17;;;28.40;40.00;30.00;96975.00;;;;5088696;28;20191;-82
2022/07/16 08:55:43;;;;;;;1.30;1.20;;;28.50;39.80;30.10;96973.00;;;;5089350;28;20602;-81
2022/07/16 08:58:14;;;;;;;1.45;1.00;;;28.60;39.60;30.30;96970.00;;;;5098339;28;20687;-81
2022/07/16 09:00:42;;;;;;;1.63;0.90;;;28.80;39.80;30.40;96969.00;;;;5093305;28;20187;-82
2022/07/16 09:03:16;;;;;;;1.15;1.05;;;28.90;39.60;30.50;96976.00;;;;5089434;28;20195;-81
2022/07/16 09:05:43;;;;;;;1.05;0.95;;;29.00;39.50;30.70;96973.00;;;;5089195;28;20199;-82
2022/07/16 09:08:14;;;;;;;1.20;1.10;;;29.10;39.50;30.80;96970.00;;;;5089553;28;20211;-81
2022/07/16 09:10:48;;;;;;;2.08;0.93;;;29.20;39.10;31.00;96980.00;;;;5083793;28;20192;-83
2022/07/16 09:13:16;;;;;;;3.17;1.10;;;29.40;38.50;31.10;96985.00;;;;5085564;28;20728;-81
2022/07/16 09:15:45;;;;;;;1.63;1.52;;;29.40;38.40;31.20;96979.00;;;;5091038;28;20637;-83
2022/07/16 09:18:21;;;;;;;1.10;1.00;;;29.50;38.10;31.40;96978.00;;;;5092776;28;20215;-82
2022/07/16 09:21:03;;;;;;;1.00;0.90;;;29.70;38.00;31.60;96975.00;;;;5089977;28;20720;-82
2022/07/16 09:23:38;;;;;;;1.92;1.02;;;29.80;37.60;31.80;96977.00;;;;5081750;28;20979;-82
2022/07/16 09:26:13;;;;;;;1.20;1.10;;;29.90;37.60;32.00;96972.00;;;;5084702;28;20820;-81
2022/07/16 09:28:45;;;;;;;1.45;1.00;;;30.00;37.60;32.30;96971.00;;;;5082437;28;20258;-82
2022/07/16 09:31:36;;;;;;;1.50;0.95;;;30.20;37.90;32.60;96968.00;;;;5082417;28;20254;-82
2022/07/16 09:34:07;;;;;;;1.00;1.00;;;30.30;38.10;32.80;96972.00;;;;5081767;28;20245;-82
2022/07/16 09:36:34;;;;;;;2.15;1.13;;;30.50;38.00;33.10;96971.00;;;;5093536;28;20660;-82
2022/07/16 09:39:02;;;;;;;1.45;1.10;;;30.60;37.70;33.30;96973.00;;;;5088041;28;20215;-82
2022/07/16 09:41:45;;;;;;;1.00;1.00;;;30.80;37.50;33.60;96973.00;;;;5093105;28;20192;-82
2022/07/16 09:44:21;;;;;;;0.85;0.85;;;31.00;36.40;33.80;96988.00;;;;5093748;28;20238;-82
2022/07/16 09:47:01;;;;;;;1.45;1.00;;;31.10;36.40;33.90;96984.00;;;;5087895;28;20195;-82
2022/07/16 09:49:30;;;;;;;1.35;0.90;;;31.30;36.30;34.00;96981.00;;;;5094211;28;20199;-82
2022/07/16 09:51:58;;;;;;;1.48;0.90;;;31.50;36.00;34.10;96985.00;;;;5089930;28;20624;-82
2022/07/16 09:54:31;;;;;;;1.08;0.93;;;31.70;36.30;34.30;96993.00;;;;5087693;28;20204;-82
2022/07/16 09:57:20;;;;;;;1.20;1.10;;;31.80;35.20;34.40;96988.00;;;;5093309;28;20274;-82
2022/07/16 09:59:49;;;;;;;1.27;1.15;;;32.00;34.60;34.50;96979.00;;;;5090548;28;20210;-82
2022/07/16 10:02:27;;;;;;;0.90;0.80;;;32.20;34.20;34.50;96972.00;;;;5086944;28;20603;-82
2022/07/16 10:04:55;;;;;;;0.88;0.88;;;32.40;33.50;34.50;96980.00;;;;5078330;28;20249;-82
2022/07/16 10:07:25;;;;;;;1.23;0.80;;;32.50;34.00;34.50;96988.00;;;;5086128;28;20235;-81
2022/07/16 10:09:54;;;;;;;0.90;0.65;;;32.60;33.70;34.40;96982.00;;;;5085276;28;20245;-83
2022/07/16 10:12:29;;;;;;;1.38;0.90;;;32.60;33.40;34.40;96977.00;;;;5093591;28;20225;-82
2022/07/16 10:14:57;;;;;;;0.90;0.90;;;32.70;32.70;34.50;96965.00;;;;5088712;28;20643;-81
2022/07/16 10:17:34;;;;;;;1.00;0.90;;;32.80;32.90;34.50;96978.00;;;;5087318;28;20265;-81
2022/07/16 10:20:08;;;;;;;1.40;0.75;;;32.90;33.00;34.50;96972.00;;;;5096301;28;20706;-80
2022/07/16 10:22:37;;;;;;;0.77;0.70;;;33.00;32.60;34.40;96972.00;;;;5078670;28;20196;-80
2022/07/16 10:25:18;;;;;;;0.90;0.90;;;33.10;32.80;34.40;96975.00;;;;5096217;28;20658;-80
2022/07/16 10:27:47;;;;;;;0.52;0.52;;;33.20;32.30;34.40;96976.00;;;;5098941;28;20280;-81
2022/07/16 10:30:24;;;;;;;1.13;0.90;;;33.30;32.60;34.40;96969.00;;;;5096260;28;20187;-81
2022/07/16 10:33:12;;;;;;;1.00;1.00;;;33.30;32.00;34.50;96965.00;;;;5085786;28;20227;-80
2022/07/16 10:35:44;;;;;;;0.70;0.70;;;33.40;31.70;34.50;96962.00;;;;5092431;28;20258;-81
2022/07/16 10:38:17;;;;;;;2.60;1.52;;;33.40;31.70;34.40;96960.00;;;;5090762;28;20234;-81
2022/07/16 10:40:47;;;;;;;2.42;0.80;;;33.40;31.30;34.30;96960.00;;;;5092688;28;20199;-80
2022/07/16 10:43:19;;;;;;;0.88;0.70;;;33.40;31.20;34.20;96964.00;;;;5097599;28;20204;-80
2022/07/16 10:45:55;;;;;;;0.65;0.60;;;33.50;31.20;34.10;96953.00;;;;5097124;28;20264;-79
2022/07/16 10:48:29;;;;;;;0.75;0.70;;;33.50;31.00;34.00;96954.00;;;;5097103;28;20225;-79
2022/07/16 10:51:15;;;;;;;0.70;0.70;;;33.50;30.80;34.00;96959.00;;;;5096844;28;20184;-79
2022/07/16 10:54:31;;;;;;;2.05;0.70;;;33.60;30.60;34.00;96952.00;;;;5096666;28;20249;-80
2022/07/16 10:57:02;;;;;;;0.88;0.70;;;33.60;30.30;34.10;96960.00;;;;5095189;28;20282;-79
2022/07/16 10:59:35;;;;;;;1.20;0.70;;;33.70;30.90;34.10;96969.00;;;;5096063;28;20222;-80
2022/07/16 11:02:05;;;;;;;1.02;0.80;;;33.70;30.60;34.00;96951.00;;;;5095323;28;20180;-81
2022/07/16 11:04:36;;;;;;;0.77;0.77;;;33.60;30.40;33.90;96953.00;;;;5074708;28;20257;-80
2022/07/16 11:07:08;;;;;;;1.35;0.70;;;33.50;30.40;33.80;96960.00;;;;5074770;28;20648;-80
2022/07/16 11:09:38;;;;;;;0.60;0.60;;;33.40;30.00;33.60;96955.00;;;;5075021;28;20223;-80
2022/07/16 11:12:15;;;;;;;0.40;0.40;;;33.20;30.00;33.40;96953.00;;;;5075753;28;20269;-78
2022/07/16 11:14:46;;;;;;;1.77;0.70;;;33.00;30.00;33.20;96943.00;;;;5076759;28;20553;-80
2022/07/16 11:17:14;;;;;;;1.10;0.70;;;32.80;29.60;32.90;96950.00;;;;5073533;28;20306;-80